createdAt,value
2022-08-29T00:00:09.875Z,26.71
2022-08-29T00:04:10.991Z,26.64
2022-08-29T00:07:49.010Z,26.60
2022-08-29T00:11:26.978Z,26.53
2022-08-29T00:15:07.528Z,26.50
2022-08-29T00:18:45.809Z,26.47
2022-08-29T00:22:24.550Z,26.43
2022-08-29T00:26:03.354Z,26.41
2022-08-29T00:29:40.836Z,26.38
2022-08-29T00:33:18.422Z,26.35
2022-08-29T00:36:55.670Z,26.33
2022-08-29T00:40:37.147Z,26.29
2022-08-29T00:44:15.298Z,26.27
2022-08-29T00:48:00.903Z,26.24
2022-08-29T00:51:40.842Z,26.18
2022-08-29T00:55:23.832Z,26.12
2022-08-29T00:59:18.192Z,26.07
2022-08-29T01:02:55.393Z,25.99
2022-08-29T01:06:33.526Z,25.93
2022-08-29T01:10:13.508Z,25.90
2022-08-29T01:13:54.608Z,25.89
2022-08-29T01:17:38.130Z,25.88
2022-08-29T01:21:29.357Z,25.89
2022-08-29T01:25:21.117Z,25.88
2022-08-29T01:28:58.529Z,25.89
2022-08-29T01:32:35.992Z,25.89
2022-08-29T01:36:18.331Z,25.89
2022-08-29T01:39:55.669Z,25.90
2022-08-29T01:43:42.513Z,25.90
2022-08-29T01:47:24.634Z,25.90
2022-08-29T01:51:02.363Z,25.88
2022-08-29T01:54:42.910Z,25.87
2022-08-29T01:58:20.498Z,25.84
2022-08-29T02:02:12.126Z,25.81
2022-08-29T02:05:49.327Z,25.79
2022-08-29T02:09:26.789Z,25.75
2022-08-29T02:13:04.654Z,25.74
2022-08-29T02:16:42.477Z,25.74
2022-08-29T02:20:20.488Z,25.73
2022-08-29T02:24:16.011Z,25.72
2022-08-29T02:27:58.944Z,25.69
2022-08-29T02:31:37.447Z,25.69
2022-08-29T02:35:15.493Z,25.69
2022-08-29T02:38:54.874Z,25.67
2022-08-29T02:42:32.762Z,25.67
2022-08-29T02:46:14.863Z,25.66
2022-08-29T02:49:52.329Z,25.66
2022-08-29T02:53:31.116Z,25.66
2022-08-29T02:57:08.297Z,25.66
2022-08-29T03:00:45.961Z,25.67
2022-08-29T03:04:23.753Z,25.69
2022-08-29T03:08:03.500Z,25.69
2022-08-29T03:11:40.512Z,25.70
2022-08-29T03:15:22.265Z,25.71
2022-08-29T03:19:00.340Z,25.71
2022-08-29T03:22:38.866Z,25.73
2022-08-29T03:26:16.174Z,25.74
2022-08-29T03:29:53.161Z,25.74
2022-08-29T03:33:30.886Z,25.74
2022-08-29T03:37:08.059Z,25.75
2022-08-29T03:40:46.114Z,25.76
2022-08-29T03:44:24.486Z,25.76
2022-08-29T03:48:03.148Z,25.76
2022-08-29T03:51:41.859Z,25.77
2022-08-29T03:55:20.297Z,25.76
2022-08-29T03:58:58.719Z,25.77
2022-08-29T04:02:36.610Z,25.75
2022-08-29T04:06:15.925Z,25.75
2022-08-29T04:09:53.241Z,25.74
2022-08-29T04:13:30.289Z,25.73
2022-08-29T04:17:08.977Z,25.72
2022-08-29T04:20:49.094Z,25.72
2022-08-29T04:24:26.943Z,25.72
2022-08-29T04:28:07.926Z,25.71
2022-08-29T04:31:45.212Z,25.71
2022-08-29T04:35:23.083Z,25.74
2022-08-29T04:39:00.221Z,25.78
2022-08-29T04:42:38.586Z,25.81
2022-08-29T04:46:23.867Z,25.83
2022-08-29T04:50:02.137Z,25.83
2022-08-29T04:53:39.296Z,25.81
2022-08-29T04:57:16.992Z,25.82
2022-08-29T05:00:56.186Z,25.80
2022-08-29T05:04:33.528Z,25.79
2022-08-29T05:08:10.989Z,25.76
2022-08-29T05:11:49.693Z,25.72
2022-08-29T05:15:27.279Z,25.69
2022-08-29T05:19:08.347Z,25.66
2022-08-29T05:22:46.474Z,25.63
2022-08-29T05:26:29.133Z,25.59
2022-08-29T05:30:07.034Z,25.54
2022-08-29T05:33:44.219Z,25.49
2022-08-29T05:37:21.773Z,25.45
2022-08-29T05:41:01.391Z,25.43
2022-08-29T05:44:40.297Z,25.39
2022-08-29T05:48:18.291Z,25.39
2022-08-29T05:51:57.081Z,25.38
2022-08-29T05:55:42.681Z,25.38
2022-08-29T05:59:20.602Z,25.39
2022-08-29T06:02:58.352Z,25.40
2022-08-29T06:06:36.459Z,25.41
2022-08-29T06:10:13.826Z,25.43
2022-08-29T06:13:51.472Z,25.43
2022-08-29T06:17:28.929Z,25.45
2022-08-29T06:21:07.927Z,25.45
2022-08-29T06:24:46.359Z,25.46
2022-08-29T06:28:26.591Z,25.48
2022-08-29T06:32:05.227Z,25.52
2022-08-29T06:35:43.570Z,25.57
2022-08-29T06:39:21.489Z,25.63
2022-08-29T06:42:58.968Z,25.70
2022-08-29T06:46:40.332Z,25.79
2022-08-29T06:50:17.895Z,25.88
2022-08-29T06:53:56.676Z,25.99
2022-08-29T06:57:36.302Z,26.06
2022-08-29T07:01:17.139Z,26.17
2022-08-29T07:04:55.979Z,26.28
2022-08-29T07:08:33.892Z,26.43
2022-08-29T07:12:11.735Z,26.58
2022-08-29T07:15:49.945Z,26.77
2022-08-29T07:19:27.966Z,26.93
2022-08-29T07:23:05.227Z,27.11
2022-08-29T07:26:46.590Z,27.28
2022-08-29T07:30:25.521Z,27.45
2022-08-29T07:34:03.665Z,27.62
2022-08-29T07:37:41.676Z,27.81
2022-08-29T07:41:19.802Z,28.02
2022-08-29T07:44:58.622Z,28.24
2022-08-29T07:48:36.545Z,28.53
2022-08-29T07:52:13.510Z,28.83
2022-08-29T07:55:52.256Z,29.09
2022-08-29T07:59:31.299Z,29.31
2022-08-29T08:03:09.757Z,29.50
2022-08-29T08:06:47.024Z,29.69
2022-08-29T08:10:24.835Z,29.85
2022-08-29T08:14:04.704Z,30.06
2022-08-29T08:17:44.237Z,30.27
2022-08-29T08:21:22.865Z,30.48
2022-08-29T08:25:00.070Z,30.70
2022-08-29T08:28:39.606Z,30.92
2022-08-29T08:32:16.737Z,31.10
2022-08-29T08:35:55.708Z,31.25
2022-08-29T08:39:37.108Z,31.41
2022-08-29T08:43:26.534Z,31.48
2022-08-29T08:47:09.293Z,31.57
2022-08-29T08:50:54.299Z,31.64
2022-08-29T08:54:42.672Z,31.71
2022-08-29T08:58:40.550Z,31.86
2022-08-29T09:02:29.986Z,32.03
2022-08-29T09:06:32.974Z,32.19
2022-08-29T09:10:32.016Z,32.40
2022-08-29T09:14:44.721Z,32.36
2022-08-29T09:18:41.144Z,32.45
2022-08-29T09:22:27.206Z,32.66
2022-08-29T09:26:12.958Z,32.65
2022-08-29T09:30:02.603Z,32.37
2022-08-29T09:33:44.588Z,32.44
2022-08-29T09:37:35.167Z,32.41
2022-08-29T09:41:26.552Z,32.38
2022-08-29T09:45:18.463Z,32.41
2022-08-29T09:49:02.526Z,32.37
2022-08-29T09:52:57.673Z,32.33
2022-08-29T09:56:37.532Z,32.35
2022-08-29T10:00:17.981Z,32.40
2022-08-29T10:04:02.214Z,32.42
2022-08-29T10:07:52.777Z,32.39
2022-08-29T10:11:36.359Z,32.23
2022-08-29T10:15:48.855Z,32.04
2022-08-29T10:19:32.025Z,31.78
2022-08-29T10:23:41.160Z,31.62
2022-08-29T10:27:29.298Z,31.65
2022-08-29T10:31:13.246Z,31.79
2022-08-29T10:35:27.577Z,31.91
2022-08-29T10:39:23.352Z,31.97
2022-08-29T10:43:26.993Z,32.03
2022-08-29T10:47:23.753Z,32.02
2022-08-29T10:51:01.580Z,31.94
2022-08-29T10:54:54.992Z,31.88
2022-08-29T10:59:08.372Z,31.90
2022-08-29T11:03:12.376Z,32.08
2022-08-29T11:07:11.950Z,32.32
2022-08-29T11:10:52.385Z,32.56
2022-08-29T11:14:53.130Z,32.67
2022-08-29T11:18:46.343Z,32.77
2022-08-29T11:22:33.692Z,33.01
2022-08-29T11:26:34.531Z,33.28
2022-08-29T11:30:20.410Z,33.48
2022-08-29T11:34:17.571Z,33.58
2022-08-29T11:38:21.321Z,33.68
2022-08-29T11:42:05.632Z,33.74
2022-08-29T11:45:59.126Z,33.87
2022-08-29T11:49:41.183Z,34.10
2022-08-29T11:53:22.066Z,34.35
2022-08-29T11:57:02.313Z,34.54
2022-08-29T12:00:43.513Z,34.61
2022-08-29T12:04:52.769Z,34.57
2022-08-29T12:08:46.936Z,34.56
2022-08-29T12:12:46.333Z,34.64
2022-08-29T12:16:48.512Z,34.64
2022-08-29T12:20:32.382Z,34.66
2022-08-29T12:24:31.536Z,34.71
2022-08-29T12:28:15.849Z,34.69
2022-08-29T12:32:22.234Z,34.74
2022-08-29T12:36:09.684Z,34.81
2022-08-29T12:40:12.323Z,34.66
2022-08-29T12:43:54.540Z,34.54
2022-08-29T12:47:46.464Z,34.45
2022-08-29T12:51:39.037Z,34.36
2022-08-29T12:55:19.144Z,34.35
2022-08-29T12:59:00.012Z,34.25
2022-08-29T13:02:38.383Z,34.07
2022-08-29T13:06:19.866Z,33.89
2022-08-29T13:10:00.688Z,33.73
2022-08-29T13:13:39.789Z,33.73
2022-08-29T13:17:20.727Z,33.67
2022-08-29T13:21:22.489Z,33.78
2022-08-29T13:25:05.081Z,33.79
2022-08-29T13:28:56.926Z,33.66
2022-08-29T13:32:35.030Z,33.50
2022-08-29T13:36:28.158Z,33.27
2022-08-29T13:40:29.453Z,33.01
2022-08-29T13:44:15.548Z,32.89
2022-08-29T13:47:58.718Z,32.75
2022-08-29T13:51:36.275Z,32.55
2022-08-29T13:55:14.089Z,32.47
2022-08-29T13:58:51.831Z,32.48
2022-08-29T14:02:31.230Z,32.65
2022-08-29T14:06:08.914Z,32.90
2022-08-29T14:09:47.028Z,33.41
2022-08-29T14:13:24.998Z,34.50
2022-08-29T14:17:03.817Z,35.09
2022-08-29T14:20:41.815Z,34.97
2022-08-29T14:24:19.528Z,35.00
2022-08-29T14:27:59.615Z,35.04
2022-08-29T14:31:37.904Z,35.23
2022-08-29T14:35:27.432Z,35.29
2022-08-29T14:39:09.719Z,35.39
2022-08-29T14:42:47.673Z,34.99
2022-08-29T14:46:25.838Z,34.98
2022-08-29T14:50:04.878Z,34.42
2022-08-29T14:53:51.609Z,33.18
2022-08-29T14:57:32.692Z,32.90
2022-08-29T15:01:09.999Z,32.41
2022-08-29T15:04:48.898Z,31.86
2022-08-29T15:08:26.394Z,31.54
2022-08-29T15:12:04.721Z,31.14
2022-08-29T15:15:41.722Z,30.22
2022-08-29T15:23:19.359Z,30.21
2022-08-29T15:26:58.324Z,30.34
2022-08-29T15:30:37.865Z,30.46
2022-08-29T15:34:17.810Z,30.69
2022-08-29T15:37:56.661Z,30.70
2022-08-29T15:41:35.544Z,30.65
2022-08-29T15:45:14.132Z,30.83
2022-08-29T15:48:53.865Z,30.99
2022-08-29T15:52:31.477Z,31.09
2022-08-29T15:56:09.165Z,31.14
2022-08-29T16:00:01.777Z,31.14
2022-08-29T16:03:39.446Z,31.16
2022-08-29T16:07:17.907Z,31.15
2022-08-29T16:10:55.923Z,31.12
2022-08-29T16:18:32.536Z,31.09
2022-08-29T16:22:10.436Z,31.06
2022-08-29T16:25:48.172Z,31.06
2022-08-29T16:29:27.012Z,31.07
2022-08-29T16:33:04.896Z,31.11
2022-08-29T16:36:42.111Z,31.18
2022-08-29T16:40:25.986Z,31.27
2022-08-29T16:43:59.063Z,31.36
2022-08-29T16:47:41.536Z,31.47
2022-08-29T16:51:14.032Z,31.54
2022-08-29T16:55:00.372Z,31.52
2022-08-29T16:58:37.874Z,31.46
2022-08-29T17:02:16.708Z,31.36
2022-08-29T17:05:59.087Z,31.35
2022-08-29T17:09:36.397Z,31.29
2022-08-29T17:13:14.514Z,31.23
2022-08-29T17:16:54.565Z,31.10
2022-08-29T17:20:36.845Z,30.97
2022-08-29T17:24:20.018Z,30.83
2022-08-29T17:28:17.030Z,30.69
2022-08-29T17:31:53.854Z,30.58
2022-08-29T17:35:31.481Z,30.48
2022-08-29T17:39:08.554Z,30.41
2022-08-29T17:42:47.574Z,30.36
2022-08-29T17:46:25.709Z,30.27
2022-08-29T17:50:04.839Z,30.21
2022-08-29T17:53:43.137Z,30.12
2022-08-29T17:57:20.831Z,30.05
2022-08-29T18:00:59.127Z,29.96
2022-08-29T18:04:36.416Z,29.87
2022-08-29T18:08:13.839Z,29.77
2022-08-29T18:11:53.578Z,29.66
2022-08-29T18:15:35.283Z,29.57
2022-08-29T18:19:14.457Z,29.51
2022-08-29T18:22:51.799Z,29.44
2022-08-29T18:26:30.203Z,29.38
2022-08-29T18:30:10.886Z,29.31
2022-08-29T18:34:03.369Z,29.25
2022-08-29T18:37:41.323Z,29.18
2022-08-29T18:41:18.840Z,29.13
2022-08-29T18:44:56.170Z,29.08
2022-08-29T18:48:33.835Z,29.04
2022-08-29T18:52:13.802Z,28.99
2022-08-29T18:55:54.083Z,28.93
2022-08-29T18:59:32.596Z,28.86
2022-08-29T19:03:11.599Z,28.74
2022-08-29T19:06:49.547Z,28.68
2022-08-29T19:10:29.371Z,28.60
2022-08-29T19:14:06.846Z,28.56
2022-08-29T19:17:44.170Z,28.52
2022-08-29T19:21:21.395Z,28.47
2022-08-29T19:24:58.702Z,28.47
2022-08-29T19:28:37.494Z,28.45
2022-08-29T19:32:15.265Z,28.43
2022-08-29T19:35:52.946Z,28.40
2022-08-29T19:39:31.216Z,28.25
2022-08-29T19:43:13.611Z,28.12
2022-08-29T19:46:51.513Z,28.03
2022-08-29T19:50:29.638Z,28.02
2022-08-29T19:54:06.787Z,28.04
2022-08-29T19:57:48.346Z,28.07
2022-08-29T20:01:23.263Z,28.09
2022-08-29T20:05:01.758Z,28.12
2022-08-29T20:08:45.811Z,28.13
2022-08-29T20:12:23.226Z,28.14
2022-08-29T20:16:00.317Z,28.15
2022-08-29T20:19:42.799Z,28.16
2022-08-29T20:23:18.078Z,28.16
2022-08-29T20:26:52.811Z,28.16
2022-08-29T20:30:34.482Z,28.15
2022-08-29T20:34:11.913Z,28.15
2022-08-29T20:37:49.393Z,28.15
2022-08-29T20:41:27.474Z,28.14
2022-08-29T20:45:05.293Z,28.13
2022-08-29T20:48:43.223Z,28.11
2022-08-29T20:52:22.272Z,28.10
2022-08-29T20:56:01.172Z,28.09
2022-08-29T20:59:38.716Z,28.10
2022-08-29T21:03:16.914Z,28.09
2022-08-29T21:06:59.891Z,28.07
2022-08-29T21:10:37.756Z,28.04
2022-08-29T21:14:16.084Z,28.04
2022-08-29T21:17:53.448Z,28.03
2022-08-29T21:21:31.755Z,28.02
2022-08-29T21:25:10.153Z,28.00
2022-08-29T21:28:47.708Z,27.99
2022-08-29T21:32:25.562Z,27.97
2022-08-29T21:36:04.047Z,27.95
2022-08-29T21:39:42.063Z,27.93
2022-08-29T21:43:21.182Z,27.92
2022-08-29T21:47:00.788Z,27.91
2022-08-29T21:50:39.649Z,27.90
2022-08-29T21:54:18.142Z,27.88
2022-08-29T21:57:55.644Z,27.87
2022-08-29T22:01:36.053Z,27.86
2022-08-29T22:05:15.474Z,27.83
2022-08-29T22:08:53.802Z,27.81
2022-08-29T22:12:32.066Z,27.80
2022-08-29T22:16:10.557Z,27.78
2022-08-29T22:19:48.205Z,27.75
2022-08-29T22:23:25.735Z,27.74
2022-08-29T22:27:03.806Z,27.72
2022-08-29T22:30:40.758Z,27.70
2022-08-29T22:34:19.234Z,27.68
2022-08-29T22:37:57.606Z,27.66
2022-08-29T22:41:36.090Z,27.62
2022-08-29T22:45:16.168Z,27.61
2022-08-29T22:48:53.145Z,27.59
2022-08-29T22:52:31.966Z,27.50
2022-08-29T22:56:10.218Z,27.49
2022-08-29T22:59:48.495Z,27.51
2022-08-29T23:03:25.336Z,27.52
2022-08-29T23:07:04.336Z,27.52
2022-08-29T23:10:42.101Z,27.54
2022-08-29T23:14:20.965Z,27.54
2022-08-29T23:17:58.445Z,27.54
2022-08-29T23:21:38.750Z,27.56
2022-08-29T23:25:18.074Z,27.55
2022-08-29T23:28:55.250Z,27.56
2022-08-29T23:32:33.392Z,27.54
2022-08-29T23:36:10.983Z,27.52
2022-08-29T23:39:49.054Z,27.47
2022-08-29T23:43:27.213Z,27.40
2022-08-29T23:47:05.396Z,27.33
2022-08-29T23:50:45.797Z,27.29
2022-08-29T23:54:26.886Z,27.24
2022-08-29T23:58:05.117Z,27.19
